Time;durP1;ratioP1;P1;durP2;ratioP2;P2;SDS_P1;SDS_P2;PMS_P1;PMS_P2;Temp;Humidity;BMP_temperature;BMP_pressure;BME280_temperature;BME280_humidity;BME280_pressure;Samples;Min_cycle;Max_cycle;Signal;HPM_P1;HPM_P2
2022/06/12 00:01:15;;;;;;;10.27;2.78;;;;;;;48.66;11.62;100360.97;5085353;28;20046;-60
2022/06/12 00:03:43;;;;;;;14.82;2.90;;;;;;;49.53;11.00;100361.81;5089552;28;20043;-59
2022/06/12 00:06:10;;;;;;;7.43;2.58;;;;;;;49.11;11.15;100355.50;5095498;28;20020;-58
2022/06/12 00:08:39;;;;;;;7.50;2.50;;;;;;;49.31;11.14;100363.69;5098119;28;20059;-59
2022/06/12 00:11:09;;;;;;;11.20;2.95;;;;;;;49.94;11.85;100354.94;5098516;28;20110;-62
2022/06/12 00:13:43;;;;;;;22.55;3.58;;;;;;;49.81;10.74;100358.56;5102213;28;20033;-60
2022/06/12 00:16:13;;;;;;;19.60;2.72;;;;;;;50.10;11.27;100359.72;5096935;28;20209;-58
2022/06/12 00:18:40;;;;;;;10.77;2.70;;;;;;;50.41;10.07;100355.22;5092032;28;20028;-59
2022/06/12 00:21:11;;;;;;;10.13;2.40;;;;;;;48.87;11.32;100359.19;5083214;28;21195;-59
2022/06/12 00:23:54;;;;;;;8.05;2.40;;;;;;;49.29;11.23;100360.56;5093694;28;20032;-58
2022/06/12 00:26:29;;;;;;;16.88;2.75;;;;;;;49.68;11.13;100353.47;5081784;28;20116;-60
2022/06/12 00:29:07;;;;;;;9.35;2.20;;;;;;;49.45;11.68;100355.09;5080088;28;20032;-60
2022/06/12 00:31:38;;;;;;;12.05;2.65;;;;;;;49.63;11.03;100350.66;5081628;28;20119;-60
2022/06/12 00:34:06;;;;;;;19.50;2.80;;;;;;;49.35;11.12;100351.03;5084655;28;20042;-59
2022/06/12 00:36:33;;;;;;;13.02;2.95;;;;;;;48.28;12.13;100354.22;5088106;28;20103;-59
2022/06/12 00:39:01;;;;;;;13.52;3.22;;;;;;;46.87;13.51;100339.75;5095318;28;20533;-61
2022/06/12 00:41:28;;;;;;;17.90;4.20;;;;;;;46.52;13.50;100345.28;5083364;28;20032;-62
2022/06/12 00:43:54;;;;;;;12.00;3.28;;;;;;;47.14;13.82;100349.63;5090396;28;20016;-62
2022/06/12 00:46:57;;;;;;;11.77;2.55;;;;;;;46.97;14.00;100343.88;5100532;28;20037;-61
2022/06/12 00:49:39;;;;;;;11.07;3.42;;;;;;;46.88;14.11;100340.53;5087896;28;20097;-62
2022/06/12 00:52:33;;;;;;;10.63;2.63;;;;;;;46.88;14.08;100347.06;5086234;28;20383;-61
2022/06/12 00:55:07;;;;;;;18.45;3.08;;;;;;;47.06;13.53;100344.94;5085281;28;20042;-62
2022/06/12 00:57:35;;;;;;;10.65;2.83;;;;;;;47.08;13.46;100342.28;5089034;28;20048;-61
2022/06/12 01:00:10;;;;;;;6.32;2.40;;;;;;;47.20;13.44;100335.19;5082506;28;20435;-60
2022/06/12 01:02:39;;;;;;;9.38;2.38;;;;;;;46.77;13.87;100340.56;5081422;28;20032;-61
2022/06/12 01:07:57;;;;;;;14.15;2.60;;;;;;;46.57;14.48;100338.75;5086711;28;20537;-62
2022/06/12 01:10:28;;;;;;;10.15;2.53;;;;;;;46.59;14.17;100339.00;5089562;28;20521;-63
2022/06/12 01:13:01;;;;;;;9.68;2.60;;;;;;;46.66;13.93;100347.06;5085488;28;20118;-60
2022/06/12 01:15:35;;;;;;;6.88;2.70;;;;;;;46.23;13.99;100337.94;5092474;28;20136;-62
2022/06/12 01:18:06;;;;;;;12.05;3.20;;;;;;;45.70;14.73;100339.69;5084580;28;20048;-62
2022/06/12 01:20:39;;;;;;;15.75;3.10;;;;;;;45.38;14.77;100345.56;5098743;28;20438;-62
2022/06/12 01:23:26;;;;;;;11.35;2.65;;;;;;;45.26;14.87;100355.47;5090749;28;20031;-61
2022/06/12 01:26:11;;;;;;;10.32;2.88;;;;;;;45.19;14.96;100356.69;5081162;28;20462;-61
2022/06/12 01:28:52;;;;;;;15.00;2.97;;;;;;;45.10;15.23;100354.06;5079390;28;20153;-59
2022/06/12 01:31:37;;;;;;;12.02;2.80;;;;;;;44.99;14.93;100353.97;5096733;28;20060;-60
2022/06/12 01:34:24;;;;;;;18.80;3.53;;;;;;;44.52;15.73;100361.97;5082802;28;20040;-61
2022/06/12 01:37:12;;;;;;;15.55;3.60;;;;;;;44.50;15.35;100358.84;5087493;28;20530;-59
2022/06/12 01:39:45;;;;;;;8.07;3.08;;;;;;;44.36;15.53;100353.25;5092409;28;20088;-61
2022/06/12 01:42:20;;;;;;;12.10;3.13;;;;;;;44.20;15.77;100358.31;5089776;28;20028;-62
2022/06/12 01:45:11;;;;;;;9.95;3.05;;;;;;;43.86;16.13;100360.06;5089950;28;20789;-61
2022/06/12 01:47:52;;;;;;;14.93;3.35;;;;;;;43.49;16.24;100350.50;5109241;28;20042;-59
2022/06/12 01:50:35;;;;;;;12.00;2.55;;;;;;;43.20;16.17;100337.09;5093274;28;20416;-61
2022/06/12 01:53:26;;;;;;;18.08;3.10;;;;;;;43.12;16.68;100353.91;5095331;28;20084;-61
2022/06/12 01:56:03;;;;;;;12.07;2.65;;;;;;;42.93;16.58;100355.47;5094858;28;20135;-64
2022/06/12 01:58:51;;;;;;;10.98;2.80;;;;;;;42.68;16.61;100366.25;5095064;28;20041;-61
2022/06/12 02:01:43;;;;;;;9.13;2.42;;;;;;;42.51;16.66;100365.97;5094221;28;20038;-58
2022/06/12 02:04:22;;;;;;;9.77;2.33;;;;;;;42.33;17.00;100365.38;5095565;28;20024;-60
2022/06/12 02:07:04;;;;;;;13.82;2.42;;;;;;;42.19;17.14;100352.66;5095512;28;20446;-60
2022/06/12 02:09:57;;;;;;;10.23;2.20;;;;;;;42.03;17.00;100359.66;5095427;28;20069;-61
2022/06/12 02:15:43;;;;;;;15.50;2.97;;;;;;;41.71;17.36;100366.31;5093151;28;20044;-63
2022/06/12 02:18:43;;;;;;;11.02;2.80;;;;;;;41.56;17.94;100367.03;5093873;28;20550;-62
2022/06/12 02:21:48;;;;;;;9.65;2.70;;;;;;;41.39;18.34;100363.03;5077235;28;20037;-62
2022/06/12 02:24:15;;;;;;;9.90;2.38;;;;;;;41.22;18.60;100364.72;5070551;28;20044;-62
2022/06/12 02:26:47;;;;;;;9.43;2.78;;;;;;;41.00;18.69;100371.50;5073737;28;20025;-62
2022/06/12 02:29:21;;;;;;;14.23;2.95;;;;;;;40.84;18.84;100369.06;5074371;28;20040;-62
2022/06/12 02:31:53;;;;;;;14.68;3.05;;;;;;;40.69;19.16;100368.94;5075183;28;20052;-62
2022/06/12 02:34:27;;;;;;;16.33;3.50;;;;;;;40.51;19.37;100385.31;5075619;28;20098;-62
2022/06/12 02:36:59;;;;;;;;;;;;;;;40.42;19.39;100384.09;5075804;28;20059;-60
2022/06/12 02:39:30;;;;;;;11.48;4.00;;;;;;;40.36;19.59;100371.72;5075179;28;19920;-60
2022/06/12 02:42:06;;;;;;;14.18;4.30;;;;;;;40.27;19.70;100383.16;5075332;28;20039;-60
2022/06/12 02:45:08;;;;;;;15.98;4.65;;;;;;;40.12;20.30;100380.19;5077922;28;20036;-59
2022/06/12 02:47:38;;;;;;;16.90;4.47;;;;;;;39.96;20.25;100380.50;5095233;28;20482;-60
2022/06/12 02:50:08;;;;;;;18.20;4.47;;;;;;;39.91;20.52;100386.81;5095227;28;20074;-59
2022/06/12 02:52:57;;;;;;;16.65;3.72;;;;;;;39.65;21.43;100394.88;5095828;28;20416;-60
2022/06/12 02:55:37;;;;;;;17.15;4.03;;;;;;;39.51;21.38;100389.81;5095346;28;20024;-60
2022/06/12 02:58:10;;;;;;;15.40;3.85;;;;;;;39.25;22.26;100395.75;5095579;28;20058;-61
2022/06/12 03:00:55;;;;;;;23.63;4.50;;;;;;;39.16;22.52;100400.63;5095186;28;20032;-61
2022/06/12 03:03:49;;;;;;;20.80;4.93;;;;;;;38.95;22.67;100399.41;5095047;28;20028;-60
2022/06/12 03:06:17;;;;;;;16.80;3.95;;;;;;;38.93;22.01;100405.56;5095183;28;20115;-59
2022/06/12 03:08:51;;;;;;;15.23;4.40;;;;;;;38.73;22.75;100407.22;5095043;28;20024;-60
2022/06/12 03:11:26;;;;;;;24.70;5.45;;;;;;;38.40;23.37;100416.97;5094793;28;20119;-61
2022/06/12 03:13:56;;;;;;;32.83;5.60;;;;;;;38.19;23.57;100425.50;5093725;28;20081;-61
2022/06/12 03:16:32;;;;;;;20.15;4.57;;;;;;;38.12;23.94;100422.91;5077975;28;20082;-61
2022/06/12 03:19:12;;;;;;;15.52;4.35;;;;;;;37.93;23.80;100419.16;5074638;28;20098;-61
2022/06/12 03:21:45;;;;;;;19.73;4.85;;;;;;;37.90;23.63;100434.25;5074599;28;20040;-61
2022/06/12 03:24:38;;;;;;;26.73;5.32;;;;;;;38.01;24.01;100424.09;5074464;28;20090;-60
2022/06/12 03:27:24;;;;;;;20.85;5.55;;;;;;;38.17;20.96;100425.16;5074363;28;20031;-61
2022/06/12 03:30:28;;;;;;;30.80;6.03;;;;;;;38.18;21.37;100432.41;5074169;28;20037;-59
2022/06/12 03:33:20;;;;;;;32.58;6.32;;;;;;;38.00;21.00;100433.06;5052372;28;20117;-60
2022/06/12 03:35:53;;;;;;;20.33;5.97;;;;;;;37.93;20.14;100441.84;5074113;28;20033;-61
2022/06/12 03:38:31;;;;;;;32.05;6.30;;;;;;;38.39;18.76;100445.84;5074495;28;20040;-61
2022/06/12 03:41:15;;;;;;;32.65;6.50;;;;;;;38.34;18.87;100446.44;5072232;28;20044;-60
2022/06/12 03:44:14;;;;;;;38.72;7.20;;;;;;;39.09;17.24;100454.94;5091539;28;20059;-62
2022/06/12 03:46:59;;;;;;;21.88;6.40;;;;;;;39.12;16.90;100448.31;5093001;28;20054;-61
2022/06/12 03:49:36;;;;;;;31.55;5.88;;;;;;;39.04;16.40;100450.63;5102335;28;20490;-61
2022/06/12 03:52:17;;;;;;;23.83;5.82;;;;;;;38.82;17.33;100458.44;5092121;28;20036;-60
2022/06/12 03:54:57;;;;;;;28.60;5.90;;;;;;;38.40;17.49;100461.63;5092563;28;20033;-61
2022/06/12 04:11:02;;;;;;;23.15;7.45;;;;;;;36.73;20.36;100467.97;5114759;27;20426;-62
2022/06/12 04:13:29;;;;;;;24.02;7.57;;;;;;;36.48;20.24;100482.09;5119864;28;20055;-61
2022/06/12 04:16:08;;;;;;;29.50;9.40;;;;;;;36.26;20.94;100479.03;5108941;28;20023;-63
2022/06/12 04:18:35;;;;;;;43.03;8.68;;;;;;;36.33;19.62;100486.56;5113705;28;20042;-60
2022/06/12 04:21:07;;;;;;;38.05;7.15;;;;;;;36.51;20.13;100498.19;5120908;28;20426;-61
2022/06/12 04:23:44;;;;;;;17.80;4.50;;;;;;;36.74;20.54;100503.56;5119676;28;20127;-61
2022/06/12 04:26:22;;;;;;;15.20;4.05;;;;;;;36.81;19.26;100496.94;5127634;28;20482;-62
2022/06/12 04:28:58;;;;;;;13.13;5.43;;;;;;;36.70;18.92;100513.41;5121963;27;20108;-63
2022/06/12 04:31:27;;;;;;;15.68;4.45;;;;;;;36.75;19.01;100505.13;5110133;28;20077;-62
2022/06/12 04:34:24;;;;;;;13.98;3.55;;;;;;;36.87;18.13;100515.75;5115990;28;20096;-62
2022/06/12 04:36:58;;;;;;;10.02;3.83;;;;;;;36.58;18.92;100524.25;5106891;28;20386;-65
2022/06/12 04:39:29;;;;;;;15.93;5.10;;;;;;;36.54;18.52;100520.72;5103009;28;20184;-61
2022/06/12 04:41:57;;;;;;;13.68;4.15;;;;;;;36.59;18.42;100519.38;5100280;28;20039;-61
2022/06/12 04:44:24;;;;;;;11.65;5.47;;;;;;;36.67;18.35;100532.09;5108555;28;20119;-61
2022/06/12 04:46:54;;;;;;;14.60;4.03;;;;;;;36.64;18.04;100533.00;5106698;28;20024;-60
2022/06/12 04:49:25;;;;;;;15.65;4.43;;;;;;;36.46;18.24;100538.38;5107162;28;20083;-61
2022/06/12 04:52:00;;;;;;;16.38;4.40;;;;;;;36.46;17.90;100541.22;5106035;28;20040;-64
2022/06/12 04:54:28;;;;;;;14.30;3.40;;;;;;;36.52;17.96;100543.03;5109482;28;20032;-62
2022/06/12 04:56:55;;;;;;;14.45;3.85;;;;;;;37.00;16.86;100537.63;5098302;28;20024;-62
2022/06/12 04:59:22;;;;;;;17.65;3.78;;;;;;;37.06;16.68;100533.00;5102239;28;20039;-62
2022/06/12 05:01:50;;;;;;;11.40;3.10;;;;;;;37.15;16.61;100533.88;5120302;28;20095;-63
2022/06/12 05:04:19;;;;;;;14.30;3.20;;;;;;;36.97;16.76;100530.03;5112974;27;20179;-64
2022/06/12 05:06:49;;;;;;;11.25;3.13;;;;;;;37.20;16.43;100524.06;5089086;28;20036;-63
2022/06/12 05:09:17;;;;;;;18.45;3.08;;;;;;;37.35;15.78;100530.88;5107716;28;20133;-64
2022/06/12 05:11:44;;;;;;;14.93;3.17;;;;;;;37.37;15.92;100534.06;5091474;28;20074;-63
2022/06/12 05:14:12;;;;;;;13.35;3.17;;;;;;;37.24;16.44;100544.56;5096512;28;20034;-63
2022/06/12 05:16:48;;;;;;;14.82;3.10;;;;;;;36.98;16.72;100545.78;5090445;28;20047;-62
2022/06/12 05:19:19;;;;;;;9.60;3.22;;;;;;;37.10;16.68;100550.66;5086294;28;20031;-62
2022/06/12 05:21:46;;;;;;;9.93;3.28;;;;;;;36.87;16.78;100549.72;5092939;28;20581;-61
2022/06/12 05:24:13;;;;;;;14.07;3.50;;;;;;;36.79;16.75;100556.84;5090673;28;20098;-64
2022/06/12 05:26:42;;;;;;;8.05;3.10;;;;;;;36.72;17.30;100559.06;5090432;28;20063;-62
2022/06/12 05:29:20;;;;;;;19.17;3.97;;;;;;;36.31;17.31;100554.94;5091397;28;20027;-61
2022/06/12 05:31:47;;;;;;;15.07;4.13;;;;;;;36.08;17.81;100553.09;5092083;28;20127;-62
2022/06/12 05:34:15;;;;;;;16.08;3.47;;;;;;;36.12;17.60;100555.84;5105526;28;20041;-62
2022/06/12 05:36:43;;;;;;;11.02;3.35;;;;;;;36.12;17.67;100542.50;5091859;28;20047;-62
2022/06/12 05:39:10;;;;;;;21.05;3.50;;;;;;;36.30;17.20;100551.31;5093490;28;20016;-63
2022/06/12 05:41:37;;;;;;;16.77;4.22;;;;;;;36.19;17.82;100552.81;5098003;28;20036;-63
2022/06/12 05:44:04;;;;;;;18.88;3.92;;;;;;;36.21;17.65;100556.78;5097977;28;20039;-60
2022/06/12 05:46:31;;;;;;;15.65;3.30;;;;;;;36.15;17.83;100552.13;5107859;28;20481;-61
2022/06/12 05:48:58;;;;;;;16.30;4.50;;;;;;;35.98;17.95;100549.31;5099246;28;20024;-62
2022/06/12 05:51:25;;;;;;;18.48;6.93;;;;;;;35.68;18.25;100561.75;5099280;28;20076;-63
2022/06/12 05:53:52;;;;;;;19.42;4.57;;;;;;;35.57;19.03;100558.41;5097149;28;20124;-63
2022/06/12 05:56:22;;;;;;;21.60;6.05;;;;;;;35.71;18.99;100555.22;5088522;28;20160;-60
2022/06/12 05:58:49;;;;;;;26.58;4.22;;;;;;;35.57;18.89;100555.56;5089611;28;20072;-62
2022/06/12 06:01:19;;;;;;;17.10;4.95;;;;;;;35.72;18.13;100559.63;5094989;28;20035;-61
2022/06/12 06:03:47;;;;;;;20.77;4.22;;;;;;;35.78;18.20;100551.44;5107404;28;20032;-58
2022/06/12 06:06:21;;;;;;;16.48;3.90;;;;;;;35.65;17.18;100553.34;5090667;28;20035;-63
2022/06/12 06:08:49;;;;;;;19.08;3.85;;;;;;;35.80;18.13;100559.47;5081055;28;20146;-64
2022/06/12 06:11:15;;;;;;;11.18;4.22;;;;;;;35.77;17.79;100554.69;5097185;28;20024;-63
2022/06/12 06:13:42;;;;;;;18.92;7.90;;;;;;;35.56;17.85;100564.50;5090509;28;20032;-62
2022/06/12 06:16:09;;;;;;;18.20;3.83;;;;;;;35.65;17.68;100562.63;5097155;28;20444;-62
2022/06/12 06:18:39;;;;;;;10.93;3.28;;;;;;;35.60;17.63;100560.34;5090649;28;20071;-61
2022/06/12 06:21:08;;;;;;;20.77;4.68;;;;;;;35.41;17.82;100564.03;5098533;28;20032;-61
2022/06/12 06:23:36;;;;;;;19.73;8.25;;;;;;;35.02;19.97;100568.50;5094439;28;20085;-63
2022/06/12 06:26:02;;;;;;;20.67;5.18;;;;;;;34.59;20.93;100570.56;5098621;28;20477;-63
2022/06/12 06:28:29;;;;;;;12.80;3.30;;;;;;;34.33;21.27;100567.41;5095854;28;20089;-62
2022/06/12 06:30:57;;;;;;;14.10;5.57;;;;;;;34.17;21.07;100572.94;5091460;28;20359;-62
2022/06/12 06:33:24;;;;;;;15.02;9.60;;;;;;;34.27;19.72;100569.13;5081397;28;20029;-62
2022/06/12 06:35:51;;;;;;;20.02;12.05;;;;;;;34.20;20.16;100569.25;5084492;28;20020;-62
2022/06/12 06:38:18;;;;;;;19.33;8.73;;;;;;;33.99;20.52;100569.63;5086351;28;20576;-61
2022/06/12 06:40:46;;;;;;;13.70;7.05;;;;;;;34.15;20.47;100579.03;5099975;28;20020;-60
2022/06/12 06:43:13;;;;;;;14.02;5.72;;;;;;;33.93;21.73;100572.13;5093675;28;20050;-62
2022/06/12 06:48:27;;;;;;;11.40;4.20;;;;;;;33.68;20.76;100574.53;5086844;28;20486;-64
2022/06/12 06:50:54;;;;;;;8.52;2.80;;;;;;;33.68;21.21;100569.69;5096334;28;20034;-62
2022/06/12 06:53:21;;;;;;;10.60;3.33;;;;;;;33.71;21.41;100571.66;5097794;28;20202;-64
2022/06/12 06:55:48;;;;;;;7.40;3.10;;;;;;;33.69;20.33;100560.00;5078479;28;20036;-60
2022/06/12 06:58:20;;;;;;;7.18;2.88;;;;;;;33.86;19.67;100566.63;5088432;28;20111;-63
2022/06/12 07:00:49;;;;;;;6.85;2.92;;;;;;;33.93;20.04;100561.69;5087293;28;20036;-61
2022/06/12 07:03:16;;;;;;;6.03;2.78;;;;;;;33.89;19.76;100560.91;5087277;28;20031;-65
2022/06/12 07:05:45;;;;;;;12.38;2.97;;;;;;;33.75;20.30;100563.94;5085901;28;20121;-61
2022/06/12 07:08:12;;;;;;;6.07;2.30;;;;;;;33.53;21.96;100559.88;5114243;27;20035;-62
2022/06/12 07:10:39;;;;;;;9.68;2.85;;;;;;;33.39;21.34;100554.44;5091372;28;20048;-61
2022/06/12 07:13:07;;;;;;;11.60;3.00;;;;;;;33.33;24.72;100557.75;5089807;28;20024;-62
2022/06/12 07:15:36;;;;;;;20.00;10.48;;;;;;;32.95;22.98;100554.22;5089794;28;20100;-64
2022/06/12 07:18:04;;;;;;;12.98;4.40;;;;;;;32.94;21.94;100554.63;5095905;28;20554;-62
2022/06/12 07:20:35;;;;;;;12.70;5.78;;;;;;;33.04;22.64;100550.91;5097053;28;20040;-63
2022/06/12 07:23:03;;;;;;;9.88;3.70;;;;;;;32.97;22.29;100556.59;5089877;28;20533;-63
2022/06/12 07:25:32;;;;;;;8.35;2.85;;;;;;;32.92;24.88;100551.44;5078744;28;20136;-60
2022/06/12 07:27:59;;;;;;;8.45;2.25;;;;;;;33.26;21.65;100551.38;5090589;28;20115;-66
2022/06/12 07:30:26;;;;;;;11.68;3.00;;;;;;;33.20;21.88;100542.59;5090586;28;20576;-59
2022/06/12 07:32:53;;;;;;;6.40;3.78;;;;;;;33.22;22.02;100542.19;5090838;28;20039;-62
2022/06/12 07:35:21;;;;;;;17.90;6.57;;;;;;;32.95;23.54;100542.94;5090184;28;20120;-63
2022/06/12 07:37:48;;;;;;;14.32;3.38;;;;;;;32.79;22.37;100537.09;5092426;28;20032;-63
2022/06/12 07:40:22;;;;;;;9.40;3.30;;;;;;;32.81;23.20;100537.50;5085936;28;20025;-64
2022/06/12 07:42:49;;;;;;;12.25;4.50;;;;;;;32.76;22.80;100537.94;5085998;28;20077;-62
2022/06/12 07:45:16;;;;;;;19.80;2.97;;;;;;;32.63;24.10;100532.06;5092003;28;20214;-63
2022/06/12 07:47:43;;;;;;;21.23;9.68;;;;;;;32.57;23.62;100533.75;5084960;28;20035;-61
2022/06/12 07:50:10;;;;;;;10.93;2.85;;;;;;;32.45;23.21;100534.28;5101934;28;20039;-62
2022/06/12 07:52:39;;;;;;;7.03;2.78;;;;;;;32.27;24.38;100530.84;5087852;28;20035;-60
2022/06/12 07:55:09;;;;;;;11.02;3.50;;;;;;;32.05;24.12;100531.03;5090744;28;20477;-62
2022/06/12 07:57:38;;;;;;;15.35;3.83;;;;;;;31.90;25.74;100529.56;5086551;28;20044;-59
2022/06/12 08:00:06;;;;;;;13.05;3.30;;;;;;;31.83;24.00;100513.59;5089257;28;20028;-61
2022/06/12 08:02:38;;;;;;;10.38;3.30;;;;;;;31.97;23.99;100523.09;5090017;28;20611;-63
2022/06/12 08:05:07;;;;;;;7.80;2.38;;;;;;;31.81;25.76;100518.81;5094882;28;20138;-63
2022/06/12 08:07:34;;;;;;;9.35;2.50;;;;;;;31.73;24.82;100522.91;5081897;28;20056;-61
2022/06/12 08:10:03;;;;;;;11.85;2.58;;;;;;;31.65;24.99;100509.31;5088476;28;20056;-63
2022/06/12 08:12:32;;;;;;;7.07;2.58;;;;;;;31.64;24.13;100510.50;5091015;28;20039;-62
2022/06/12 08:14:59;;;;;;;7.28;2.00;;;;;;;31.79;23.66;100518.44;5086284;28;20094;-61
2022/06/12 08:17:26;;;;;;;7.38;2.75;;;;;;;31.71;25.94;100513.25;5083210;28;20357;-63
2022/06/12 08:22:37;;;;;;;8.30;2.40;;;;;;;32.04;22.45;100518.22;5089851;28;20038;-59
2022/06/12 08:25:05;;;;;;;5.47;2.58;;;;;;;32.11;22.69;100515.31;5096099;28;20023;-62
2022/06/12 08:27:32;;;;;;;10.48;3.97;;;;;;;31.81;25.09;100516.00;5083985;28;20078;-62
2022/06/12 08:29:59;;;;;;;8.10;3.60;;;;;;;31.43;24.06;100506.66;5097445;28;20051;-62
2022/06/12 08:32:26;;;;;;;18.90;5.38;;;;;;;31.24;24.46;100504.38;5100167;28;20475;-62
2022/06/12 08:34:58;;;;;;;18.27;4.53;;;;;;;31.07;23.97;100505.28;5074230;28;20020;-62
2022/06/12 08:37:32;;;;;;;19.05;12.13;;;;;;;31.11;26.00;100500.41;5086406;28;20043;-63
2022/06/12 08:40:00;;;;;;;15.63;5.03;;;;;;;30.95;27.24;100510.13;5092442;28;20039;-64
2022/06/12 08:42:44;;;;;;;18.90;6.00;;;;;;;30.84;27.01;100498.16;5099188;28;20038;-62
2022/06/12 08:45:21;;;;;;;13.38;4.63;;;;;;;31.00;23.74;100494.06;5089020;28;20450;-59
2022/06/12 08:48:11;;;;;;;9.27;4.05;;;;;;;30.94;24.27;100502.13;5093270;28;20055;-62
2022/06/12 08:51:06;;;;;;;8.85;2.58;;;;;;;30.76;24.52;100502.22;5090859;28;20033;-62
2022/06/12 08:53:58;;;;;;;17.20;3.20;;;;;;;30.78;24.76;100499.78;5079989;28;20029;-62
2022/06/12 08:56:32;;;;;;;17.75;4.35;;;;;;;30.77;27.71;100497.41;5091614;28;20061;-63
2022/06/12 08:59:14;;;;;;;23.52;9.95;;;;;;;30.44;27.67;100501.50;5097348;28;20078;-62
2022/06/12 09:01:42;;;;;;;15.52;5.80;;;;;;;30.29;26.53;100495.13;5096119;27;20067;-62
2022/06/12 09:04:19;;;;;;;22.60;7.07;;;;;;;30.02;28.83;100492.75;5096529;28;20072;-60
2022/06/12 09:06:50;;;;;;;22.10;8.45;;;;;;;30.24;27.95;100499.16;5099870;28;20161;-63
2022/06/12 09:09:17;;;;;;;35.25;13.65;;;;;;;30.60;28.60;100501.84;5084355;28;20112;-64
2022/06/12 09:11:49;;;;;;;34.92;14.88;;;;;;;30.65;28.37;100493.81;5096943;28;20405;-63
2022/06/12 09:14:37;;;;;;;42.70;15.02;;;;;;;30.69;28.57;100491.00;5094011;28;20032;-63
2022/06/12 09:17:43;;;;;;;33.50;14.65;;;;;;;30.57;29.69;100494.25;5103054;28;20028;-63
2022/06/12 09:20:12;;;;;;;49.20;15.25;;;;;;;30.39;30.95;100494.31;5094821;28;20036;-62
2022/06/12 09:22:52;;;;;;;33.75;15.32;;;;;;;30.04;31.73;100495.19;5097621;28;20035;-61
2022/06/12 09:25:42;;;;;;;35.28;13.10;;;;;;;29.79;33.54;100487.56;5092686;28;20070;-64
2022/06/12 09:28:17;;;;;;;33.58;10.52;;;;;;;29.57;36.57;100499.97;5090841;28;20070;-62
2022/06/12 09:30:49;;;;;;;27.67;9.63;;;;;;;29.36;39.58;100497.94;5089261;28;20035;-61
2022/06/12 09:33:28;;;;;;;42.13;8.82;;;;;;;29.28;41.63;100495.53;5089370;28;20478;-64
2022/06/12 09:36:05;;;;;;;26.55;8.02;;;;;;;29.11;43.10;100489.50;5094763;28;20064;-64
2022/06/12 09:39:08;;;;;;;20.67;8.52;;;;;;;29.05;42.75;100491.06;5091502;28;20135;-63
2022/06/12 09:41:46;;;;;;;44.55;21.75;;;;;;;28.98;45.23;100485.47;5095056;28;20031;-62
2022/06/12 09:44:29;;;;;;;62.55;42.53;;;;;;;28.83;46.16;100478.19;5093501;28;20055;-63
2022/06/12 09:47:12;;;;;;;74.28;34.22;;;;;;;28.67;47.14;100472.16;5113744;27;20433;-62
2022/06/12 09:49:41;;;;;;;55.92;23.33;;;;;;;28.51;49.83;100478.88;5093388;28;20081;-63
2022/06/12 09:52:31;;;;;;;50.53;20.90;;;;;;;28.39;48.35;100458.88;5092860;28;20024;-62
2022/06/12 09:55:23;;;;;;;47.60;21.02;;;;;;;28.61;50.08;100480.13;5091304;28;20386;-62
2022/06/12 09:57:54;;;;;;;42.00;20.88;;;;;;;28.44;50.42;100467.66;5081764;28;20037;-63
2022/06/12 10:00:26;;;;;;;53.50;24.40;;;;;;;28.45;49.78;100474.06;5093112;28;20036;-62
2022/06/12 10:03:05;;;;;;;50.25;24.60;;;;;;;28.44;51.93;100478.84;5104820;28;20055;-62
2022/06/12 10:05:46;;;;;;;43.67;21.48;;;;;;;28.27;53.08;100477.56;5100908;28;20499;-63
2022/06/12 10:08:37;;;;;;;45.00;19.35;;;;;;;28.14;53.39;100486.63;5097303;28;20378;-63
2022/06/12 10:11:08;;;;;;;45.95;20.40;;;;;;;28.02;53.36;100490.56;5093729;28;20040;-64
2022/06/12 10:14:00;;;;;;;84.32;30.67;;;;;;;27.92;54.64;100492.06;5098963;28;20039;-63
2022/06/12 10:16:37;;;;;;;56.10;29.42;;;;;;;27.82;54.77;100495.59;5094219;28;20051;-61
2022/06/12 10:19:10;;;;;;;59.92;29.13;;;;;;;27.79;54.82;100504.75;5103619;28;20443;-62
2022/06/12 10:21:41;;;;;;;70.68;25.50;;;;;;;27.78;55.07;100500.34;5102023;28;20454;-62
2022/06/12 10:24:10;;;;;;;53.85;23.25;;;;;;;27.73;55.29;100495.13;5092614;28;20410;-63
2022/06/12 10:26:37;;;;;;;40.53;18.02;;;;;;;27.66;54.98;100501.47;5095149;28;20097;-62
2022/06/12 10:29:14;;;;;;;58.22;23.88;;;;;;;27.60;55.50;100489.00;5105153;28;20024;-60
2022/06/12 10:31:50;;;;;;;39.00;15.68;;;;;;;27.57;54.37;100486.19;5104142;28;20031;-62
2022/06/12 10:34:23;;;;;;;31.67;12.43;;;;;;;27.51;55.32;100482.94;5103950;27;20040;-61
2022/06/12 10:36:51;;;;;;;30.42;12.02;;;;;;;27.55;56.25;100494.16;5112241;28;20030;-61
2022/06/12 10:39:23;;;;;;;32.22;15.30;;;;;;;27.61;55.22;100503.75;5108173;28;20027;-61
2022/06/12 10:41:52;;;;;;;58.60;20.70;;;;;;;27.72;55.05;100493.53;5088611;28;20046;-62
2022/06/12 10:44:55;;;;;;;36.78;18.08;;;;;;;27.82;54.60;100470.44;5082883;28;20557;-61
2022/06/12 10:47:25;;;;;;;24.17;11.65;;;;;;;27.93;54.70;100487.28;5076781;28;20040;-62
2022/06/12 10:50:15;;;;;;;25.80;10.55;;;;;;;27.91;55.71;100484.88;5097333;28;20401;-61
2022/06/12 10:53:02;;;;;;;30.67;11.90;;;;;;;27.76;55.26;100477.59;5094980;28;20025;-60
2022/06/12 10:55:42;;;;;;;29.50;8.88;;;;;;;27.62;56.77;100480.22;5092903;28;20044;-62
2022/06/12 10:58:29;;;;;;;25.60;7.53;;;;;;;27.55;56.26;100488.56;5095943;28;20481;-64
2022/06/12 11:01:04;;;;;;;27.60;10.65;;;;;;;27.49;56.80;100490.91;5093772;28;20028;-61
2022/06/12 11:04:00;;;;;;;28.35;13.23;;;;;;;27.44;56.83;100494.03;5089827;28;20024;-64
2022/06/12 11:06:29;;;;;;;;;;;;;;;27.34;58.16;100489.97;5104392;28;20505;-63
2022/06/12 11:08:56;;;;;;;47.08;22.65;;;;;;;27.24;58.59;100495.44;5099229;28;19916;-62
2022/06/12 11:11:36;;;;;;;49.35;22.92;;;;;;;27.15;58.84;100498.56;5107053;28;20066;-62
2022/06/12 11:14:12;;;;;;;34.17;14.90;;;;;;;27.12;58.75;100492.94;5094712;28;20995;-61
2022/06/12 11:16:51;;;;;;;26.17;11.32;;;;;;;27.08;58.93;100493.69;5099863;28;20386;-64
2022/06/12 11:19:49;;;;;;;23.52;9.90;;;;;;;27.02;57.98;100492.44;5107894;28;20085;-62
2022/06/12 11:22:27;;;;;;;26.55;9.23;;;;;;;27.00;58.68;100505.16;5104900;28;20032;-62
2022/06/12 11:25:26;;;;;;;26.75;10.57;;;;;;;27.24;56.94;100498.22;5098162;28;20054;-65
2022/06/12 11:28:46;;;;;;;25.55;13.18;;;;;;;27.25;55.96;100499.84;5081513;28;20132;-64
2022/06/12 11:31:43;;;;;;;41.33;16.00;;;;;;;27.19;56.81;100502.19;5047559;28;20041;-64
2022/06/12 11:34:20;;;;;;;27.92;10.07;;;;;;;27.13;56.70;100505.69;5073154;28;20406;-64
2022/06/12 11:37:18;;;;;;;25.92;9.07;;;;;;;27.07;56.98;100513.59;5090495;28;20493;-64
2022/06/12 11:40:22;;;;;;;148.50;13.77;;;;;;;27.04;56.95;100506.00;5092576;28;20044;-62
2022/06/12 11:43:03;;;;;;;30.52;9.55;;;;;;;27.02;56.30;100505.56;5093258;28;20032;-64
2022/06/12 11:45:47;;;;;;;27.52;11.45;;;;;;;27.02;55.92;100511.16;5093427;28;20478;-63
2022/06/12 11:48:26;;;;;;;28.30;11.02;;;;;;;26.97;56.69;100511.47;5093392;28;20118;-63
2022/06/12 11:51:06;;;;;;;24.45;10.95;;;;;;;26.95;57.24;100508.28;5093328;28;20028;-64
2022/06/12 11:53:54;;;;;;;19.88;9.90;;;;;;;26.92;57.47;100503.44;5093411;28;20028;-64
2022/06/12 11:56:36;;;;;;;23.15;9.23;;;;;;;26.94;57.39;100520.59;5093267;28;20032;-64
2022/06/12 11:59:40;;;;;;;21.42;7.47;;;;;;;26.89;57.72;100521.72;5093423;28;20481;-63
2022/06/12 12:02:09;;;;;;;21.75;6.50;;;;;;;26.87;57.73;100524.09;5074708;28;20048;-63
2022/06/12 12:04:53;;;;;;;16.60;6.38;;;;;;;26.86;57.91;100530.06;5093110;28;20016;-62
2022/06/12 12:07:52;;;;;;;16.75;6.18;;;;;;;26.88;57.77;100525.69;5093316;28;20040;-62
2022/06/12 12:10:24;;;;;;;18.75;5.93;;;;;;;26.88;57.50;100527.69;5092280;28;20563;-62
2022/06/12 12:12:59;;;;;;;17.75;6.25;;;;;;;26.88;57.29;100522.09;5093123;28;20044;-63
2022/06/12 12:15:32;;;;;;;13.93;5.47;;;;;;;26.97;57.90;100525.41;5092803;28;20032;-64
2022/06/12 12:18:03;;;;;;;13.88;5.82;;;;;;;26.97;57.51;100520.66;5093170;28;20032;-64
2022/06/12 12:20:38;;;;;;;17.73;5.75;;;;;;;26.96;57.92;100524.63;5094530;28;20038;-63